createdAt,value
2022-10-19T00:01:04.263Z,72.65
2022-10-19T00:03:32.056Z,73.84
2022-10-19T00:05:59.255Z,73.11
2022-10-19T00:08:26.643Z,73.40
2022-10-19T00:10:53.371Z,75.30
2022-10-19T00:13:20.133Z,76.67
2022-10-19T00:15:46.854Z,76.42
2022-10-19T00:18:13.577Z,77.54
2022-10-19T00:20:40.393Z,77.77
2022-10-19T00:23:07.179Z,76.09
2022-10-19T00:25:33.835Z,76.57
2022-10-19T00:28:01.269Z,75.88
2022-10-19T00:30:28.001Z,77.71
2022-10-19T00:32:54.754Z,77.15
2022-10-19T00:35:21.811Z,76.66
2022-10-19T00:37:48.617Z,76.24
2022-10-19T00:40:15.410Z,76.82
2022-10-19T00:42:42.126Z,76.97
2022-10-19T00:45:16.573Z,76.56
2022-10-19T00:47:44.955Z,76.81
2022-10-19T00:50:14.416Z,77.24
2022-10-19T00:52:41.720Z,79.55
2022-10-19T00:55:09.955Z,80.82
2022-10-19T00:57:37.124Z,81.03
2022-10-19T01:00:06.685Z,81.09
2022-10-19T01:02:33.699Z,81.30
2022-10-19T01:05:01.505Z,81.56
2022-10-19T01:07:28.458Z,81.44
2022-10-19T01:09:55.877Z,81.76
2022-10-19T01:12:39.499Z,81.96
2022-10-19T01:15:22.546Z,81.99
2022-10-19T01:17:49.201Z,81.59
2022-10-19T01:20:57.419Z,82.15
2022-10-19T01:23:49.017Z,82.43
2022-10-19T01:26:46.305Z,83.09
2022-10-19T01:29:19.042Z,83.36
2022-10-19T01:32:14.463Z,83.75
2022-10-19T01:35:10.385Z,83.86
2022-10-19T01:37:55.230Z,84.83
2022-10-19T01:40:40.668Z,85.25
2022-10-19T01:43:13.151Z,85.93
2022-10-19T01:45:48.062Z,86.41
2022-10-19T01:48:19.692Z,86.87
2022-10-19T01:50:50.035Z,86.99
2022-10-19T01:53:19.560Z,87.36
2022-10-19T01:55:50.541Z,87.33
2022-10-19T01:58:22.637Z,87.56
2022-10-19T02:00:52.416Z,88.06
2022-10-19T02:03:20.029Z,88.72
2022-10-19T02:05:48.286Z,89.63
2022-10-19T02:08:20.490Z,90.71
2022-10-19T02:10:48.089Z,91.94
2022-10-19T02:13:16.572Z,92.18
2022-10-19T02:15:48.153Z,93.23
2022-10-19T02:18:20.235Z,93.68
2022-10-19T02:20:47.205Z,94.02
2022-10-19T02:23:17.355Z,94.80
2022-10-19T02:25:44.167Z,95.56
2022-10-19T02:28:11.290Z,95.74
2022-10-19T02:30:38.079Z,94.70
2022-10-19T02:33:04.961Z,93.74
2022-10-19T02:35:31.804Z,92.25
2022-10-19T02:38:02.303Z,89.99
2022-10-19T02:40:34.529Z,89.51
2022-10-19T02:43:05.888Z,89.79
2022-10-19T02:45:37.269Z,88.78
2022-10-19T02:48:24.940Z,88.19
2022-10-19T02:50:52.164Z,86.89
2022-10-19T02:53:19.181Z,86.52
2022-10-19T02:55:49.297Z,85.82
2022-10-19T02:58:16.302Z,84.17
2022-10-19T03:00:43.217Z,83.12
2022-10-19T03:03:10.392Z,84.94
2022-10-19T03:05:37.499Z,82.89
2022-10-19T03:08:04.507Z,83.30
2022-10-19T03:10:31.314Z,80.74
2022-10-19T03:12:58.631Z,83.08
2022-10-19T03:15:29.084Z,83.45
2022-10-19T03:17:56.676Z,81.59
2022-10-19T03:20:23.801Z,82.69
2022-10-19T03:22:50.777Z,82.85
2022-10-19T03:25:17.756Z,83.50
2022-10-19T03:27:44.527Z,82.41
2022-10-19T03:30:11.706Z,81.77
2022-10-19T03:32:38.644Z,81.54
2022-10-19T03:35:06.182Z,80.49
2022-10-19T03:37:33.300Z,80.11
2022-10-19T03:40:00.407Z,80.60
2022-10-19T03:42:27.125Z,80.69
2022-10-19T03:44:53.949Z,80.43
2022-10-19T03:47:20.769Z,81.39
2022-10-19T03:49:47.635Z,81.30
2022-10-19T03:52:14.505Z,81.23
2022-10-19T03:54:41.423Z,81.68
2022-10-19T03:57:08.118Z,81.80
2022-10-19T03:59:34.912Z,82.88
2022-10-19T04:02:01.674Z,83.57
2022-10-19T04:04:28.543Z,82.02
2022-10-19T04:06:55.222Z,81.60
2022-10-19T04:09:23.187Z,80.28
2022-10-19T04:11:50.393Z,79.71
2022-10-19T04:14:27.190Z,79.42
2022-10-19T04:17:00.972Z,79.46
2022-10-19T04:19:27.798Z,79.51
2022-10-19T04:21:54.615Z,79.99
2022-10-19T04:24:21.588Z,80.14
2022-10-19T04:26:54.249Z,79.90
2022-10-19T04:29:26.457Z,80.02
2022-10-19T04:31:56.502Z,80.57
2022-10-19T04:34:23.297Z,80.74
2022-10-19T04:36:50.102Z,80.80
2022-10-19T04:39:16.905Z,81.73
2022-10-19T04:41:43.746Z,82.19
2022-10-19T04:44:10.731Z,82.43
2022-10-19T04:46:38.528Z,84.06
2022-10-19T04:49:06.901Z,84.74
2022-10-19T04:51:34.581Z,85.92
2022-10-19T04:54:02.965Z,87.49
2022-10-19T04:56:30.943Z,88.43
2022-10-19T04:58:59.118Z,87.82
2022-10-19T05:01:28.150Z,89.55
2022-10-19T05:06:29.538Z,89.63
2022-10-19T05:08:56.729Z,91.31
2022-10-19T05:11:23.763Z,91.55
2022-10-19T05:13:50.944Z,92.43
2022-10-19T05:16:21.172Z,92.68
2022-10-19T05:18:50.106Z,93.34
2022-10-19T05:21:18.660Z,94.06
2022-10-19T05:23:45.735Z,95.01
2022-10-19T05:26:18.222Z,96.10
2022-10-19T05:28:49.019Z,95.40
2022-10-19T05:31:18.436Z,94.90
2022-10-19T05:33:45.240Z,94.86
2022-10-19T05:36:19.742Z,94.55
2022-10-19T05:38:49.103Z,93.76
2022-10-19T05:41:16.359Z,93.27
2022-10-19T05:43:43.745Z,93.13
2022-10-19T05:46:13.709Z,92.65
2022-10-19T05:48:41.727Z,92.10
2022-10-19T05:51:11.621Z,91.10
2022-10-19T05:56:15.209Z,89.86
2022-10-19T05:58:42.246Z,88.98
2022-10-19T06:01:09.596Z,88.30
2022-10-19T06:03:36.735Z,87.32
2022-10-19T06:06:05.294Z,87.15
2022-10-19T06:08:32.218Z,86.51
2022-10-19T06:11:13.829Z,86.13
2022-10-19T06:13:42.238Z,85.84
2022-10-19T06:16:11.467Z,85.59
2022-10-19T06:18:38.367Z,84.63
2022-10-19T06:21:08.207Z,84.55
2022-10-19T06:23:36.317Z,83.41
2022-10-19T06:26:09.130Z,83.27
2022-10-19T06:28:36.650Z,82.20
2022-10-19T06:31:07.127Z,81.70
2022-10-19T06:33:36.735Z,81.05
2022-10-19T06:36:07.629Z,78.90
2022-10-19T06:38:34.486Z,78.99
2022-10-19T06:41:01.227Z,77.16
2022-10-19T06:43:28.397Z,75.16
2022-10-19T06:45:55.686Z,75.43
2022-10-19T06:48:22.640Z,75.56
2022-10-19T06:51:06.330Z,74.39
2022-10-19T06:53:34.834Z,74.21
2022-10-19T06:56:03.401Z,74.51
2022-10-19T06:58:30.942Z,74.20
2022-10-19T07:01:01.365Z,72.82
2022-10-19T07:03:29.624Z,71.51
2022-10-19T07:06:00.934Z,72.69
2022-10-19T07:08:29.681Z,68.88
2022-10-19T07:10:59.454Z,67.09
2022-10-19T07:13:27.274Z,63.71
2022-10-19T07:15:58.855Z,64.31
2022-10-19T07:18:26.968Z,60.72
2022-10-19T07:21:04.349Z,57.12
2022-10-19T07:23:32.974Z,58.15
2022-10-19T07:26:07.355Z,58.08
2022-10-19T07:28:35.296Z,58.76
2022-10-19T07:31:09.230Z,58.88
2022-10-19T07:33:36.376Z,59.26
2022-10-19T07:36:06.052Z,59.77
2022-10-19T07:38:33.662Z,60.22
2022-10-19T07:41:15.424Z,61.31
2022-10-19T07:43:44.459Z,62.10
2022-10-19T07:46:17.513Z,62.95
2022-10-19T07:48:44.615Z,63.45
2022-10-19T07:51:13.512Z,64.12
2022-10-19T07:53:41.047Z,64.60
2022-10-19T07:56:10.937Z,64.32
2022-10-19T07:58:38.365Z,65.22
2022-10-19T08:01:07.530Z,64.80
2022-10-19T08:06:22.644Z,64.88
2022-10-19T08:08:50.038Z,64.92
2022-10-19T08:11:16.780Z,64.62
2022-10-19T08:13:43.823Z,64.87
2022-10-19T08:16:28.794Z,64.99
2022-10-19T08:19:01.491Z,65.25
2022-10-19T08:21:28.829Z,64.88
2022-10-19T08:23:55.870Z,65.37
2022-10-19T08:26:22.717Z,65.32
2022-10-19T08:28:49.561Z,65.39
2022-10-19T08:31:19.515Z,65.27
2022-10-19T08:33:46.565Z,65.66
2022-10-19T08:36:14.284Z,65.12
2022-10-19T08:38:43.740Z,64.25
2022-10-19T08:41:35.102Z,64.14
2022-10-19T08:44:28.340Z,63.37
2022-10-19T08:47:04.497Z,60.86
2022-10-19T08:49:33.322Z,60.19
2022-10-19T08:52:05.914Z,59.71
2022-10-19T08:54:50.949Z,59.20
2022-10-19T08:57:45.027Z,58.13
2022-10-19T09:00:17.846Z,57.34
2022-10-19T09:02:57.859Z,55.59
2022-10-19T09:05:38.920Z,55.12
2022-10-19T09:08:10.605Z,55.65
2022-10-19T09:10:44.364Z,55.16
2022-10-19T09:13:47.020Z,55.56
2022-10-19T09:16:26.084Z,56.05
2022-10-19T09:21:40.938Z,57.16
2022-10-19T09:24:29.456Z,56.79
2022-10-19T09:26:59.960Z,56.67
2022-10-19T09:29:36.605Z,56.93
2022-10-19T09:32:10.273Z,57.62
2022-10-19T09:34:42.848Z,55.49
2022-10-19T09:37:18.877Z,54.24
2022-10-19T09:39:54.786Z,54.37
2022-10-19T09:42:26.681Z,53.54
2022-10-19T09:44:55.117Z,51.96
2022-10-19T09:47:33.994Z,51.95
2022-10-19T09:50:19.077Z,51.25
2022-10-19T09:52:48.808Z,51.53
2022-10-19T09:55:15.864Z,52.33
2022-10-19T09:57:47.855Z,51.23
2022-10-19T10:00:26.355Z,51.60
2022-10-19T10:02:54.811Z,51.27
2022-10-19T10:05:37.210Z,51.64
2022-10-19T10:08:12.321Z,50.43
2022-10-19T10:10:44.372Z,50.17
2022-10-19T10:13:23.755Z,48.36
2022-10-19T10:16:03.961Z,47.44
2022-10-19T10:18:30.808Z,47.47
2022-10-19T10:20:59.584Z,48.50
2022-10-19T10:23:29.610Z,48.02
2022-10-19T10:25:58.503Z,49.74
2022-10-19T10:28:27.671Z,49.99
2022-10-19T10:31:08.120Z,50.20
2022-10-19T10:33:45.060Z,51.31
2022-10-19T10:36:13.000Z,53.09
2022-10-19T10:38:49.896Z,50.74
2022-10-19T10:41:20.220Z,49.30
2022-10-19T10:43:59.603Z,49.61
2022-10-19T10:46:35.705Z,46.68
2022-10-19T10:49:08.019Z,46.15
2022-10-19T10:51:37.490Z,46.79
2022-10-19T10:54:26.488Z,46.42
2022-10-19T10:57:12.842Z,47.14
2022-10-19T11:00:12.285Z,47.68
2022-10-19T11:03:02.079Z,48.51
2022-10-19T11:05:33.787Z,45.16
2022-10-19T11:08:14.603Z,42.82
2022-10-19T11:10:49.348Z,40.68
2022-10-19T11:13:30.418Z,39.24
2022-10-19T11:16:06.574Z,37.43
2022-10-19T11:18:43.580Z,37.10
2022-10-19T11:21:23.778Z,37.75
2022-10-19T11:24:02.638Z,37.95
2022-10-19T11:26:47.572Z,39.16
2022-10-19T11:29:32.809Z,39.29
2022-10-19T11:31:59.985Z,40.11
2022-10-19T11:35:02.077Z,41.44
2022-10-19T11:37:49.722Z,42.90
2022-10-19T11:40:29.223Z,43.27
2022-10-19T11:43:12.766Z,44.28
2022-10-19T11:46:14.616Z,44.39
2022-10-19T11:48:56.604Z,44.39
2022-10-19T11:51:58.840Z,41.54
2022-10-19T11:54:58.916Z,40.82
2022-10-19T11:57:35.191Z,38.12
2022-10-19T12:00:15.401Z,38.90
2022-10-19T12:03:08.921Z,39.75
2022-10-19T12:05:43.487Z,40.35
2022-10-19T12:08:22.353Z,41.26
2022-10-19T12:11:19.013Z,42.58
2022-10-19T12:13:54.305Z,42.92
2022-10-19T12:16:24.529Z,43.48
2022-10-19T12:18:55.756Z,43.34
2022-10-19T12:21:31.205Z,44.00
2022-10-19T12:24:00.562Z,44.01
2022-10-19T12:26:32.604Z,44.36
2022-10-19T12:29:03.206Z,44.59
2022-10-19T12:31:30.916Z,45.18
2022-10-19T12:34:06.317Z,44.47
2022-10-19T12:36:35.726Z,44.46
2022-10-19T12:39:23.512Z,43.88
2022-10-19T12:42:10.775Z,44.42
2022-10-19T12:45:01.651Z,45.43
2022-10-19T12:47:28.475Z,45.38
2022-10-19T12:49:56.359Z,45.07
2022-10-19T12:52:35.741Z,44.88
2022-10-19T12:55:21.135Z,44.78
2022-10-19T12:57:56.082Z,44.88
2022-10-19T13:00:26.268Z,45.23
2022-10-19T13:03:25.030Z,44.85
2022-10-19T13:06:23.553Z,44.70
2022-10-19T13:08:53.387Z,45.07
2022-10-19T13:11:21.022Z,45.43
2022-10-19T13:14:26.922Z,45.80
2022-10-19T13:17:01.928Z,45.70
2022-10-19T13:19:29.652Z,46.14
2022-10-19T13:22:02.163Z,46.22
2022-10-19T13:24:37.217Z,46.67
2022-10-19T13:27:04.021Z,46.75
2022-10-19T13:29:44.490Z,46.78
2022-10-19T13:32:37.082Z,47.41
2022-10-19T13:35:35.335Z,47.59
2022-10-19T13:38:17.459Z,47.34
2022-10-19T13:41:01.011Z,47.60
2022-10-19T13:43:39.554Z,47.73
2022-10-19T13:46:06.364Z,48.66
2022-10-19T13:49:04.998Z,48.44
2022-10-19T13:51:53.415Z,48.45
2022-10-19T13:54:25.939Z,47.98
2022-10-19T13:57:21.368Z,48.13
2022-10-19T14:00:04.405Z,47.58
2022-10-19T14:02:50.714Z,47.48
2022-10-19T14:05:23.195Z,47.93
2022-10-19T14:07:52.578Z,48.14
2022-10-19T14:10:28.180Z,48.50
2022-10-19T14:13:01.887Z,49.10
2022-10-19T14:15:34.751Z,49.55
2022-10-19T14:18:03.835Z,49.66
2022-10-19T14:20:34.056Z,49.70
2022-10-19T14:23:24.242Z,50.26
2022-10-19T14:25:58.883Z,50.73
2022-10-19T14:28:26.795Z,50.54
2022-10-19T14:31:03.443Z,50.40
2022-10-19T14:33:33.914Z,50.27
2022-10-19T14:36:01.560Z,50.31
2022-10-19T14:38:35.256Z,51.03
2022-10-19T14:41:06.598Z,51.29
2022-10-19T14:43:34.855Z,51.18
2022-10-19T14:46:04.290Z,52.14
2022-10-19T14:48:31.118Z,52.66
2022-10-19T14:50:58.348Z,53.40
2022-10-19T14:53:42.467Z,56.56
2022-10-19T14:56:23.872Z,57.93
2022-10-19T14:58:54.058Z,59.74
2022-10-19T15:01:21.541Z,59.37
2022-10-19T15:03:49.998Z,60.04
2022-10-19T15:06:21.667Z,59.96
2022-10-19T15:11:49.974Z,61.92
2022-10-19T15:14:22.135Z,62.92
2022-10-19T15:17:00.819Z,62.76
2022-10-19T15:19:38.025Z,64.34
2022-10-19T15:22:23.766Z,62.17
2022-10-19T15:24:58.287Z,64.27
2022-10-19T15:27:45.595Z,62.80
2022-10-19T15:30:18.527Z,63.93
2022-10-19T15:32:51.036Z,65.05
2022-10-19T15:35:27.150Z,64.95
2022-10-19T15:38:02.006Z,64.97
2022-10-19T15:40:38.233Z,64.32
2022-10-19T15:43:37.807Z,63.62
2022-10-19T15:46:20.712Z,62.65
2022-10-19T15:48:52.418Z,62.76
2022-10-19T15:51:24.996Z,62.91
2022-10-19T15:54:03.499Z,61.31
2022-10-19T15:56:33.053Z,60.42
2022-10-19T15:59:02.128Z,60.67
2022-10-19T16:01:31.734Z,61.08
2022-10-19T16:03:59.813Z,60.37
2022-10-19T16:06:30.812Z,60.10
2022-10-19T16:08:58.818Z,60.16
2022-10-19T16:11:27.001Z,61.25
2022-10-19T16:13:53.847Z,60.38
2022-10-19T16:16:29.799Z,60.88
2022-10-19T16:18:57.755Z,61.68
2022-10-19T16:21:29.933Z,61.61
2022-10-19T16:23:56.907Z,61.96
2022-10-19T16:26:26.080Z,61.97
2022-10-19T16:28:55.145Z,62.68
2022-10-19T16:31:22.941Z,63.59
2022-10-19T16:33:49.859Z,65.06
2022-10-19T16:36:20.228Z,65.98
2022-10-19T16:38:47.580Z,65.83
2022-10-19T16:41:15.025Z,66.33
2022-10-19T16:43:41.854Z,67.03
2022-10-19T16:46:08.996Z,67.51
2022-10-19T16:48:35.937Z,67.36
2022-10-19T16:51:05.497Z,68.32
2022-10-19T16:53:32.788Z,68.78
2022-10-19T16:56:08.306Z,68.94
2022-10-19T16:58:37.178Z,69.67
2022-10-19T17:01:12.659Z,70.49
2022-10-19T17:03:39.585Z,71.05
2022-10-19T17:06:07.751Z,72.18
2022-10-19T17:08:53.059Z,73.10
2022-10-19T17:11:24.370Z,74.10
2022-10-19T17:13:53.881Z,74.61
2022-10-19T17:16:21.913Z,75.00
2022-10-19T17:18:49.913Z,75.72
2022-10-19T17:21:20.301Z,76.20
2022-10-19T17:23:47.816Z,76.76
2022-10-19T17:26:14.650Z,76.24
2022-10-19T17:28:41.542Z,76.33
2022-10-19T17:31:13.788Z,76.79
2022-10-19T17:33:41.520Z,76.85
2022-10-19T17:36:11.732Z,76.67
2022-10-19T17:38:39.637Z,76.66
2022-10-19T17:41:12.022Z,77.29
2022-10-19T17:43:41.294Z,77.02
2022-10-19T17:46:12.126Z,77.62
2022-10-19T17:48:41.483Z,78.33
2022-10-19T17:51:12.038Z,78.65
2022-10-19T17:53:39.159Z,80.41
2022-10-19T17:56:07.355Z,81.01
2022-10-19T17:58:39.039Z,81.96
2022-10-19T18:01:08.359Z,82.64
2022-10-19T18:03:36.251Z,83.50
2022-10-19T18:06:12.420Z,83.48
2022-10-19T18:08:42.483Z,83.99
2022-10-19T18:11:11.112Z,84.28
2022-10-19T18:13:38.467Z,85.34
2022-10-19T18:16:17.717Z,85.41
2022-10-19T18:18:48.572Z,86.24
2022-10-19T18:21:17.895Z,86.59
2022-10-19T18:23:45.443Z,86.72
2022-10-19T18:26:19.776Z,87.62
2022-10-19T18:28:46.882Z,88.16
2022-10-19T18:31:17.341Z,89.18
2022-10-19T18:33:44.312Z,90.17
2022-10-19T18:36:11.543Z,90.62
2022-10-19T18:38:39.134Z,91.21
2022-10-19T18:43:43.670Z,91.78
2022-10-19T18:46:10.743Z,92.28
2022-10-19T18:48:38.188Z,92.73
2022-10-19T18:51:07.624Z,92.71
2022-10-19T18:53:35.241Z,93.28
2022-10-19T18:56:06.161Z,93.10
2022-10-19T18:58:33.871Z,93.86
2022-10-19T19:01:05.533Z,94.38
2022-10-19T19:03:33.194Z,95.13
2022-10-19T19:06:11.637Z,95.77
2022-10-19T19:08:39.495Z,95.47
2022-10-19T19:11:13.580Z,95.86
2022-10-19T19:13:41.932Z,96.61
2022-10-19T19:16:09.185Z,96.40
2022-10-19T19:18:36.148Z,96.46
2022-10-19T19:21:12.623Z,96.76
2022-10-19T19:23:39.441Z,97.29
2022-10-19T19:26:07.517Z,97.49
2022-10-19T19:28:36.573Z,97.23
2022-10-19T19:31:07.298Z,97.46
2022-10-19T19:33:34.341Z,97.59
2022-10-19T19:36:06.362Z,97.37
2022-10-19T19:38:34.091Z,97.01
2022-10-19T19:41:04.411Z,97.66
2022-10-19T19:43:33.005Z,97.55
2022-10-19T19:46:04.634Z,97.68
2022-10-19T19:48:35.537Z,97.47
2022-10-19T19:51:02.278Z,97.91
2022-10-19T19:53:29.014Z,97.92
2022-10-19T19:55:55.728Z,98.36
2022-10-19T19:58:22.438Z,98.76
2022-10-19T20:00:49.228Z,98.72
2022-10-19T20:03:16.842Z,99.12
2022-10-19T20:05:43.600Z,99.00
2022-10-19T20:08:11.163Z,99.07
2022-10-19T20:10:39.461Z,98.88
2022-10-19T20:13:06.289Z,99.30
2022-10-19T20:15:33.333Z,98.90
2022-10-19T20:18:00.140Z,97.73
2022-10-19T20:20:26.892Z,96.28
2022-10-19T20:22:53.743Z,96.60
2022-10-19T20:25:20.451Z,96.04
2022-10-19T20:27:47.176Z,96.12
2022-10-19T20:30:13.967Z,96.27
2022-10-19T20:32:40.634Z,96.64
2022-10-19T20:35:07.789Z,96.76
2022-10-19T20:37:34.734Z,97.27
2022-10-19T20:40:08.189Z,97.34
2022-10-19T20:42:35.990Z,98.11
2022-10-19T20:45:03.713Z,98.24
2022-10-19T20:47:30.661Z,98.80
2022-10-19T20:49:57.472Z,99.27
2022-10-19T20:52:24.218Z,99.25
2022-10-19T20:54:50.920Z,99.36
2022-10-19T20:57:17.804Z,99.46
2022-10-19T20:59:45.934Z,98.45
2022-10-19T21:02:12.677Z,96.79
2022-10-19T21:04:39.443Z,96.47
2022-10-19T21:07:06.319Z,96.25
2022-10-19T21:09:33.445Z,96.27
2022-10-19T21:12:01.539Z,95.00
2022-10-19T21:14:30.048Z,94.70
2022-10-19T21:17:00.645Z,94.47
2022-10-19T21:19:29.346Z,95.22
2022-10-19T21:22:01.701Z,94.96
2022-10-19T21:24:32.548Z,94.66
2022-10-19T21:27:05.133Z,94.87
2022-10-19T21:29:31.858Z,94.48
2022-10-19T21:31:59.063Z,94.56
2022-10-19T21:34:28.353Z,94.42
2022-10-19T21:36:55.836Z,94.15
2022-10-19T21:39:23.068Z,94.32
2022-10-19T21:41:50.270Z,94.80
2022-10-19T21:44:18.077Z,95.41
2022-10-19T21:46:47.549Z,95.69
2022-10-19T21:49:14.627Z,95.46
2022-10-19T21:51:46.301Z,95.01
2022-10-19T21:54:17.125Z,94.71
2022-10-19T21:56:44.753Z,94.66
2022-10-19T21:59:12.233Z,95.89
2022-10-19T22:01:41.260Z,96.55
2022-10-19T22:04:12.589Z,97.90
2022-10-19T22:06:39.659Z,98.73
2022-10-19T22:09:07.747Z,98.40
2022-10-19T22:11:34.649Z,97.39
2022-10-19T22:14:03.481Z,97.20
2022-10-19T22:16:31.227Z,96.07
2022-10-19T22:18:58.556Z,96.20
2022-10-19T22:21:28.797Z,96.17
2022-10-19T22:24:03.242Z,96.21
2022-10-19T22:26:38.393Z,95.85
2022-10-19T22:29:06.876Z,95.02
2022-10-19T22:31:35.243Z,94.28
2022-10-19T22:34:04.963Z,93.81
2022-10-19T22:36:31.826Z,94.70
2022-10-19T22:38:58.537Z,95.58
2022-10-19T22:41:25.274Z,95.50
2022-10-19T22:43:52.009Z,95.56
2022-10-19T22:46:18.833Z,95.47
2022-10-19T22:48:45.621Z,95.32
2022-10-19T22:51:12.515Z,95.82
2022-10-19T22:53:39.256Z,96.17
2022-10-19T22:56:06.591Z,96.32
2022-10-19T22:58:33.477Z,96.24
2022-10-19T23:01:01.946Z,96.84
2022-10-19T23:03:28.878Z,96.49
2022-10-19T23:05:55.883Z,96.69
2022-10-19T23:08:22.901Z,96.96
2022-10-19T23:10:49.742Z,96.94
2022-10-19T23:13:16.747Z,96.58
2022-10-19T23:15:44.680Z,96.80
2022-10-19T23:18:12.545Z,96.80
2022-10-19T23:20:39.787Z,97.78
2022-10-19T23:23:06.683Z,97.93
2022-10-19T23:25:33.588Z,97.58
2022-10-19T23:28:00.331Z,97.71
2022-10-19T23:30:27.104Z,97.70
2022-10-19T23:32:53.840Z,97.70
